createdAt,value
2018-11-05T00:01:04.292Z,101356.94
2018-11-05T00:03:31.220Z,101362.81
2018-11-05T00:05:58.141Z,101357.12
2018-11-05T00:08:25.052Z,101356.94
2018-11-05T00:10:51.968Z,101363.67
2018-11-05T00:13:18.893Z,101357.77
2018-11-05T00:15:45.903Z,101356.27
2018-11-05T00:18:12.817Z,101352.74
2018-11-05T00:20:39.761Z,101352.74
2018-11-05T00:23:06.683Z,101351.39
2018-11-05T00:25:33.620Z,101349.72
2018-11-05T00:28:00.541Z,101349.72
2018-11-05T00:30:27.473Z,101351.73
2018-11-05T00:32:54.394Z,101353.57
2018-11-05T00:35:21.316Z,101334.20
2018-11-05T00:37:48.245Z,101345.00
2018-11-05T00:40:15.883Z,101342.80
2018-11-05T00:42:43.421Z,101342.61
2018-11-05T00:45:11.204Z,101333.22
2018-11-05T00:47:38.156Z,101336.25
2018-11-05T00:50:09.088Z,101329.19
2018-11-05T00:52:36.076Z,101333.89
2018-11-05T00:55:03.061Z,101338.27
2018-11-05T00:57:29.978Z,101336.41
2018-11-05T00:59:56.932Z,101336.41
2018-11-05T01:02:23.863Z,101338.94
2018-11-05T01:04:50.790Z,101331.69
2018-11-05T01:07:17.710Z,101323.61
2018-11-05T01:09:44.650Z,101325.11
2018-11-05T01:12:11.562Z,101316.73
2018-11-05T01:14:38.493Z,101314.19
2018-11-05T01:17:05.454Z,101315.72
2018-11-05T01:19:32.390Z,101321.93
2018-11-05T01:21:59.301Z,101306.26
2018-11-05T01:24:26.456Z,101308.13
2018-11-05T01:26:53.396Z,101297.87
2018-11-05T01:29:20.339Z,101307.79
2018-11-05T01:31:47.274Z,101301.05
2018-11-05T01:34:14.234Z,101301.58
2018-11-05T01:36:41.158Z,101295.67
2018-11-05T01:39:09.381Z,101293.50
2018-11-05T01:41:36.349Z,101285.42
2018-11-05T01:44:03.280Z,101288.27
2018-11-05T01:46:30.217Z,101290.81
2018-11-05T01:48:57.137Z,101297.70
2018-11-05T01:51:24.061Z,101293.84
2018-11-05T01:53:51.033Z,101292.16
2018-11-05T01:56:17.974Z,101299.22
2018-11-05T01:58:44.930Z,101301.58
2018-11-05T02:01:11.867Z,101299.22
2018-11-05T02:03:38.772Z,101293.50
2018-11-05T02:06:05.718Z,101291.81
2018-11-05T02:08:32.636Z,101288.45
2018-11-05T02:10:59.581Z,101288.45
2018-11-05T02:13:26.563Z,101281.38
2018-11-05T02:16:00.227Z,101280.03
2018-11-05T02:18:27.156Z,101280.03
2018-11-05T02:20:54.113Z,101276.00
2018-11-05T02:23:21.036Z,101267.92
2018-11-05T02:25:47.992Z,101267.55
2018-11-05T02:28:14.913Z,101259.80
2018-11-05T02:30:41.862Z,101266.53
2018-11-05T02:33:08.782Z,101267.87
2018-11-05T02:35:35.731Z,101267.20
2018-11-05T02:38:02.669Z,101254.75
2018-11-05T02:40:29.595Z,101251.23
2018-11-05T02:42:56.523Z,101248.20
2018-11-05T02:45:23.497Z,101248.40
2018-11-05T02:47:50.400Z,101258.12
2018-11-05T02:50:17.334Z,101246.04
2018-11-05T02:52:45.139Z,101246.67
2018-11-05T02:55:12.109Z,101250.04
2018-11-05T02:57:39.061Z,101253.41
2018-11-05T03:00:08.760Z,101253.06
2018-11-05T03:02:35.745Z,101248.20
2018-11-05T03:05:02.829Z,101247.34
2018-11-05T03:07:29.751Z,101240.28
2018-11-05T03:09:56.694Z,101244.66
2018-11-05T03:12:23.688Z,101245.66
2018-11-05T03:14:50.636Z,101247.34
2018-11-05T03:17:17.584Z,101243.98
2018-11-05T03:19:44.519Z,101242.81
2018-11-05T03:22:11.448Z,101243.64
2018-11-05T03:24:38.388Z,101236.08
2018-11-05T03:27:05.575Z,101235.23
2018-11-05T03:29:32.527Z,101228.83
2018-11-05T03:31:59.488Z,101236.23
2018-11-05T03:34:26.430Z,101231.03
2018-11-05T03:36:53.376Z,101232.53
2018-11-05T03:39:27.151Z,101226.62
2018-11-05T03:41:54.083Z,101227.48
2018-11-05T03:44:21.014Z,101226.62
2018-11-05T03:46:47.943Z,101225.94
2018-11-05T03:49:14.884Z,101219.73
2018-11-05T03:51:41.850Z,101216.02
2018-11-05T03:54:08.801Z,101217.52
2018-11-05T03:56:35.898Z,101212.31
2018-11-05T03:59:02.760Z,101207.94
2018-11-05T04:01:29.692Z,101208.27
2018-11-05T04:03:56.602Z,101210.29
2018-11-05T04:06:23.571Z,101202.84
2018-11-05T04:08:50.510Z,101200.86
2018-11-05T04:11:17.481Z,101205.53
2018-11-05T04:13:44.409Z,101211.45
2018-11-05T04:16:11.492Z,101214.28
2018-11-05T04:18:38.350Z,101207.73
2018-11-05T04:21:05.330Z,101200.15
2018-11-05T04:23:32.261Z,101201.16
2018-11-05T04:25:59.200Z,101210.44
2018-11-05T04:28:26.139Z,101216.64
2018-11-05T04:30:53.073Z,101208.94
2018-11-05T04:33:20.035Z,101218.52
2018-11-05T04:35:46.987Z,101203.70
2018-11-05T04:38:13.920Z,101204.19
2018-11-05T04:40:40.852Z,101192.78
2018-11-05T04:43:07.810Z,101188.55
2018-11-05T04:45:34.774Z,101184.70
2018-11-05T04:48:01.702Z,101181.34
2018-11-05T04:50:28.651Z,101183.83
2018-11-05T04:52:55.576Z,101182.30
2018-11-05T04:55:22.537Z,101179.79
2018-11-05T04:57:49.477Z,101176.08
2018-11-05T05:00:17.646Z,101177.23
2018-11-05T05:02:44.692Z,101176.91
2018-11-05T05:05:12.869Z,101172.70
2018-11-05T05:07:39.814Z,101174.01
2018-11-05T05:10:07.280Z,101173.72
2018-11-05T05:12:34.288Z,101178.23
2018-11-05T05:15:01.195Z,101187.66
2018-11-05T05:17:28.276Z,101180.93
2018-11-05T05:19:55.223Z,101174.53
2018-11-05T05:22:22.174Z,101177.22
2018-11-05T05:24:49.040Z,101181.59
2018-11-05T05:27:15.969Z,101183.77
2018-11-05T05:29:42.865Z,101171.64
2018-11-05T05:32:09.789Z,101180.91
2018-11-05T05:34:36.694Z,101174.48
2018-11-05T05:37:03.628Z,101168.27
2018-11-05T05:39:30.553Z,101175.53
2018-11-05T05:41:57.608Z,101175.83
2018-11-05T05:44:24.517Z,101170.96
2018-11-05T05:46:51.436Z,101166.73
2018-11-05T05:49:18.358Z,101169.76
2018-11-05T05:51:45.281Z,101162.87
2018-11-05T05:54:12.193Z,101158.82
2018-11-05T05:56:39.127Z,101168.39
2018-11-05T05:59:06.053Z,101165.36
2018-11-05T06:01:33.038Z,101163.00
2018-11-05T06:03:59.972Z,101152.23
2018-11-05T06:06:26.991Z,101156.93
2018-11-05T06:08:53.901Z,101152.55
2018-11-05T06:11:21.044Z,101164.69
2018-11-05T06:13:47.984Z,101167.19
2018-11-05T06:16:14.901Z,101161.30
2018-11-05T06:18:41.928Z,101163.47
2018-11-05T06:21:08.872Z,101164.66
2018-11-05T06:23:35.820Z,101158.94
2018-11-05T06:26:02.797Z,101169.53
2018-11-05T06:28:29.777Z,101162.45
2018-11-05T06:30:56.691Z,101156.58
2018-11-05T06:33:23.663Z,101148.16
2018-11-05T06:35:50.588Z,101152.02
2018-11-05T06:38:17.527Z,101151.48
2018-11-05T06:40:44.474Z,101151.48
2018-11-05T06:43:11.440Z,101155.53
2018-11-05T06:45:38.382Z,101161.77
2018-11-05T06:48:05.366Z,101163.61
2018-11-05T06:50:32.317Z,101159.74
2018-11-05T06:52:59.310Z,101151.66
2018-11-05T06:55:26.302Z,101154.52
2018-11-05T06:57:53.340Z,101152.32
2018-11-05T07:00:21.540Z,101150.98
2018-11-05T07:02:48.480Z,101160.55
2018-11-05T07:05:15.640Z,101162.91
2018-11-05T07:07:49.395Z,101164.59
2018-11-05T07:10:17.014Z,101158.84
2018-11-05T07:12:44.347Z,101162.20
2018-11-05T07:15:12.558Z,101164.38
2018-11-05T07:17:39.509Z,101168.75
2018-11-05T07:20:08.481Z,101171.77
2018-11-05T07:22:35.417Z,101171.11
2018-11-05T07:25:02.373Z,101179.50
2018-11-05T07:27:29.313Z,101180.66
2018-11-05T07:29:56.255Z,101176.95
2018-11-05T07:32:23.194Z,101177.28
2018-11-05T07:34:50.109Z,101176.75
2018-11-05T07:37:17.013Z,101168.17
2018-11-05T07:39:43.933Z,101166.83
2018-11-05T07:42:10.846Z,101166.64
2018-11-05T07:44:37.757Z,101172.69
2018-11-05T07:47:04.729Z,101163.75
2018-11-05T07:49:31.948Z,101170.79
2018-11-05T07:51:58.880Z,101168.78
2018-11-05T07:54:25.819Z,101158.17
2018-11-05T07:56:52.861Z,101155.47
2018-11-05T07:59:19.764Z,101161.83
2018-11-05T08:01:46.709Z,101157.45
2018-11-05T08:04:13.642Z,101166.66
2018-11-05T08:06:40.650Z,101167.52
2018-11-05T08:09:08.950Z,101160.42
2018-11-05T08:11:35.917Z,101162.78
2018-11-05T08:14:02.942Z,101167.30
2018-11-05T08:16:29.913Z,101155.52
2018-11-05T08:18:56.857Z,101156.64
2018-11-05T08:21:23.828Z,101157.50
2018-11-05T08:23:50.783Z,101149.74
2018-11-05T08:26:17.739Z,101145.17
2018-11-05T08:28:44.701Z,101151.52
2018-11-05T08:31:11.649Z,101148.63
2018-11-05T08:33:38.674Z,101148.95
2018-11-05T08:36:05.678Z,101145.73
2018-11-05T08:38:32.625Z,101149.42
2018-11-05T08:40:59.585Z,101143.20
2018-11-05T08:43:26.556Z,101147.19
2018-11-05T08:45:53.493Z,101145.84
2018-11-05T08:48:20.425Z,101152.19
2018-11-05T08:50:47.477Z,101141.72
2018-11-05T08:53:14.334Z,101137.80
2018-11-05T08:55:41.285Z,101142.05
2018-11-05T08:58:08.238Z,101135.60
2018-11-05T09:00:40.834Z,101115.27
2018-11-05T09:03:07.772Z,101129.84
2018-11-05T09:05:34.709Z,101131.16
2018-11-05T09:08:01.638Z,101130.79
2018-11-05T09:10:28.775Z,101131.25
2018-11-05T09:12:55.514Z,101129.98
2018-11-05T09:15:29.362Z,101130.64
2018-11-05T09:17:56.308Z,101134.00
2018-11-05T09:20:23.240Z,101138.67
2018-11-05T09:22:50.774Z,101133.92
2018-11-05T09:25:17.781Z,101129.88
2018-11-05T09:27:44.750Z,101136.58
2018-11-05T09:30:15.005Z,101126.77
2018-11-05T09:32:42.457Z,101130.41
2018-11-05T09:35:09.716Z,101125.67
2018-11-05T09:37:36.656Z,101123.25
2018-11-05T09:40:05.028Z,101118.43
2018-11-05T09:42:31.981Z,101117.89
2018-11-05T09:44:58.916Z,101116.20
2018-11-05T09:47:25.829Z,101117.36
2018-11-05T09:49:52.788Z,101120.38
2018-11-05T09:52:19.793Z,101112.73
2018-11-05T09:54:46.705Z,101111.59
2018-11-05T09:57:13.730Z,101112.73
2018-11-05T09:59:40.613Z,101119.94
2018-11-05T10:02:07.564Z,101110.47
2018-11-05T10:04:34.664Z,101108.21
2018-11-05T10:07:01.503Z,101113.44
2018-11-05T10:09:28.536Z,101108.81
2018-11-05T10:11:55.563Z,101112.61
2018-11-05T10:14:22.563Z,101110.23
2018-11-05T10:16:49.756Z,101113.38
2018-11-05T10:19:16.740Z,101112.35
2018-11-05T10:21:43.718Z,101107.27
2018-11-05T10:24:10.660Z,101111.91
2018-11-05T10:26:37.637Z,101107.45
2018-11-05T10:29:04.599Z,101114.84
2018-11-05T10:31:31.544Z,101118.20
2018-11-05T10:33:58.882Z,101112.86
2018-11-05T10:36:25.845Z,101114.33
2018-11-05T10:38:52.934Z,101114.53
2018-11-05T10:41:20.257Z,101116.47
2018-11-05T10:43:47.389Z,101107.34
2018-11-05T10:46:14.378Z,101105.02
2018-11-05T10:48:41.289Z,101107.84
2018-11-05T10:51:08.279Z,101101.03
2018-11-05T10:53:35.214Z,101100.70
2018-11-05T10:56:02.197Z,101097.50
2018-11-05T10:58:29.162Z,101089.39
2018-11-05T11:01:01.789Z,101082.81
2018-11-05T11:03:36.015Z,101085.63
2018-11-05T11:06:03.661Z,101079.94
2018-11-05T11:08:30.607Z,101073.03
2018-11-05T11:10:57.527Z,101068.22
2018-11-05T11:13:24.429Z,101071.63
2018-11-05T11:15:51.346Z,101076.64
2018-11-05T11:18:18.254Z,101061.78
2018-11-05T11:20:45.161Z,101060.37
2018-11-05T11:23:12.073Z,101056.88
2018-11-05T11:25:38.978Z,101062.88
2018-11-05T11:28:06.111Z,101054.35
2018-11-05T11:30:32.854Z,101049.68
2018-11-05T11:32:59.768Z,101052.06
2018-11-05T11:35:26.695Z,101039.31
2018-11-05T11:37:53.621Z,101037.64
2018-11-05T11:40:21.916Z,101032.44
2018-11-05T11:42:49.191Z,101031.47
2018-11-05T11:45:17.204Z,101022.88
2018-11-05T11:47:44.112Z,101017.69
2018-11-05T11:50:12.269Z,101013.52
2018-11-05T11:52:39.264Z,101005.20
2018-11-05T11:55:07.703Z,101002.70
2018-11-05T11:57:34.757Z,100999.52
2018-11-05T12:00:01.673Z,100998.23
2018-11-05T12:02:28.630Z,101000.62
2018-11-05T12:04:55.679Z,100993.68
2018-11-05T12:07:22.553Z,100987.10
2018-11-05T12:09:49.490Z,100982.87
2018-11-05T12:12:16.433Z,100980.67
2018-11-05T12:14:43.593Z,100988.39
2018-11-05T12:17:10.350Z,100983.05
2018-11-05T12:19:37.292Z,100985.14
2018-11-05T12:22:11.004Z,100990.22
2018-11-05T12:24:38.146Z,100998.19
2018-11-05T12:27:04.964Z,100999.04
2018-11-05T12:29:31.925Z,100989.90
2018-11-05T12:31:58.882Z,100990.81
2018-11-05T12:34:25.809Z,100974.08
2018-11-05T12:36:52.757Z,100975.95
2018-11-05T12:39:19.722Z,100971.75
2018-11-05T12:41:46.672Z,100980.45
2018-11-05T12:44:13.624Z,100976.41
2018-11-05T12:46:41.376Z,100975.59
2018-11-05T12:49:08.308Z,100957.88
2018-11-05T12:51:35.265Z,100969.33
2018-11-05T12:54:02.529Z,100968.62
2018-11-05T12:56:29.519Z,100961.55
2018-11-05T12:58:56.830Z,100955.64
2018-11-05T13:01:23.758Z,100962.07
2018-11-05T13:03:50.706Z,100958.02
2018-11-05T13:06:17.634Z,100957.38
2018-11-05T13:08:44.565Z,100958.73
2018-11-05T13:11:11.481Z,100955.77
2018-11-05T13:13:38.392Z,100964.52
2018-11-05T13:16:05.313Z,100956.73
2018-11-05T13:18:32.225Z,100945.67
2018-11-05T13:20:59.147Z,100941.23
2018-11-05T13:23:31.649Z,100934.48
2018-11-05T13:25:58.548Z,100933.77
2018-11-05T13:28:25.524Z,100937.50
2018-11-05T13:30:52.429Z,100935.83
2018-11-05T13:33:19.322Z,100923.44
2018-11-05T13:35:46.221Z,100932.48
2018-11-05T13:38:13.718Z,100931.13
2018-11-05T13:40:40.060Z,100928.37
2018-11-05T13:43:06.980Z,100928.20
2018-11-05T13:45:34.330Z,100916.43
2018-11-05T13:48:00.826Z,100922.48
2018-11-05T13:50:28.052Z,100924.53
2018-11-05T13:52:54.594Z,100927.23
2018-11-05T13:55:21.494Z,100925.36
2018-11-05T13:57:48.532Z,100919.13
2018-11-05T14:00:18.699Z,100921.13
2018-11-05T14:02:45.605Z,100918.75
2018-11-05T14:05:12.793Z,100922.48
2018-11-05T14:07:39.706Z,100925.24
2018-11-05T14:10:09.027Z,100920.88
2018-11-05T14:12:35.990Z,100906.72
2018-11-05T14:15:02.936Z,100906.55
2018-11-05T14:17:29.839Z,100911.73
2018-11-05T14:19:56.772Z,100914.44
2018-11-05T14:22:23.720Z,100916.93
2018-11-05T14:24:50.640Z,100914.97
2018-11-05T14:27:17.620Z,100914.05
2018-11-05T14:29:44.944Z,100907.48
2018-11-05T14:32:11.388Z,100905.30
2018-11-05T14:37:11.907Z,100904.66
2018-11-05T14:39:38.788Z,100906.86
2018-11-05T14:42:05.740Z,100902.03
2018-11-05T14:44:32.689Z,100910.12
2018-11-05T14:46:59.617Z,100898.50
2018-11-05T14:49:26.525Z,100902.99
2018-11-05T14:51:53.448Z,100903.52
2018-11-05T14:54:20.368Z,100900.67
2018-11-05T14:56:47.270Z,100903.20
2018-11-05T14:59:14.189Z,100900.06
2018-11-05T15:01:41.166Z,100890.61
2018-11-05T15:04:08.116Z,100895.05
2018-11-05T15:06:35.042Z,100886.73
2018-11-05T15:09:02.101Z,100883.92
2018-11-05T15:11:29.010Z,100888.47
2018-11-05T15:13:55.956Z,100885.59
2018-11-05T15:16:22.889Z,100879.00
2018-11-05T15:18:50.371Z,100872.61
2018-11-05T15:21:16.792Z,100870.59
2018-11-05T15:23:43.810Z,100875.11
2018-11-05T15:26:10.869Z,100872.19
2018-11-05T15:28:37.701Z,100872.36
2018-11-05T15:31:05.216Z,100872.11
2018-11-05T15:33:32.178Z,100869.05
2018-11-05T15:35:59.120Z,100884.52
2018-11-05T15:38:26.045Z,100885.48
2018-11-05T15:40:52.984Z,100887.27
2018-11-05T15:43:19.908Z,100887.75
2018-11-05T15:45:46.857Z,100895.41
2018-11-05T15:48:13.794Z,100887.42
2018-11-05T15:50:40.936Z,100880.24
2018-11-05T15:53:08.169Z,100881.16
2018-11-05T15:55:34.899Z,100869.42
2018-11-05T15:58:01.847Z,100863.59
2018-11-05T16:00:28.789Z,100871.63
2018-11-05T16:02:57.246Z,100870.77
2018-11-05T16:05:24.158Z,100860.50
2018-11-05T16:07:51.077Z,100857.98
2018-11-05T16:10:17.997Z,100851.76
2018-11-05T16:12:44.909Z,100857.75
2018-11-05T16:15:12.465Z,100866.29
2018-11-05T16:17:39.372Z,100861.09
2018-11-05T16:20:08.296Z,100849.02
2018-11-05T16:22:35.201Z,100849.27
2018-11-05T16:25:02.196Z,100849.52
2018-11-05T16:27:29.687Z,100855.89
2018-11-05T16:29:56.645Z,100862.00
2018-11-05T16:32:23.557Z,100860.12
2018-11-05T16:34:50.542Z,100864.70
2018-11-05T16:37:17.406Z,100861.17
2018-11-05T16:39:44.485Z,100867.08
2018-11-05T16:42:11.288Z,100867.31
2018-11-05T16:44:38.175Z,100854.34
2018-11-05T16:47:05.138Z,100861.80
2018-11-05T16:49:32.048Z,100866.35
2018-11-05T16:51:59.028Z,100867.38
2018-11-05T16:54:25.944Z,100868.94
2018-11-05T16:56:52.857Z,100866.63
2018-11-05T16:59:19.760Z,100865.27
2018-11-05T17:01:47.265Z,100865.92
2018-11-05T17:04:13.814Z,100861.23
2018-11-05T17:06:40.764Z,100859.23
2018-11-05T17:09:08.353Z,100856.91
2018-11-05T17:11:35.309Z,100856.08
2018-11-05T17:16:36.010Z,100853.38
2018-11-05T17:19:03.061Z,100860.06
2018-11-05T17:21:29.997Z,100858.19
2018-11-05T17:23:56.936Z,100839.81
2018-11-05T17:26:23.964Z,100847.39
2018-11-05T17:28:50.816Z,100846.56
2018-11-05T17:31:17.794Z,100847.27
2018-11-05T17:33:44.745Z,100854.02
2018-11-05T17:36:11.686Z,100852.73
2018-11-05T17:38:38.654Z,100849.72
2018-11-05T17:41:05.924Z,100847.50
2018-11-05T17:43:32.890Z,100844.06
2018-11-05T17:45:59.876Z,100843.13
2018-11-05T17:48:26.849Z,100850.91
2018-11-05T17:50:53.907Z,100852.52
2018-11-05T17:53:20.754Z,100852.58
2018-11-05T17:55:47.729Z,100847.13
2018-11-05T17:58:14.693Z,100837.67
2018-11-05T18:00:41.677Z,100825.32
2018-11-05T18:03:08.634Z,100827.81
2018-11-05T18:05:35.584Z,100836.05
2018-11-05T18:08:02.543Z,100842.48
2018-11-05T18:10:29.484Z,100839.02
2018-11-05T18:12:56.444Z,100835.47
2018-11-05T18:15:23.379Z,100831.20
2018-11-05T18:17:50.337Z,100823.10
2018-11-05T18:20:17.533Z,100819.87
2018-11-05T18:22:44.500Z,100817.97
2018-11-05T18:25:12.941Z,100837.63
2018-11-05T18:27:46.973Z,100830.73
2018-11-05T18:30:14.518Z,100827.33
2018-11-05T18:32:41.486Z,100824.45
2018-11-05T18:35:09.751Z,100810.25
2018-11-05T18:37:36.741Z,100793.09
2018-11-05T18:40:06.149Z,100808.69
2018-11-05T18:42:33.091Z,100809.83
2018-11-05T18:45:00.057Z,100794.34
2018-11-05T18:47:27.020Z,100777.44
2018-11-05T18:49:54.024Z,100785.36
2018-11-05T18:52:20.931Z,100790.61
2018-11-05T18:54:47.906Z,100783.16
2018-11-05T18:57:14.922Z,100766.32
2018-11-05T18:59:41.862Z,100760.74
2018-11-05T19:02:08.838Z,100768.70
2018-11-05T19:04:35.864Z,100757.90
2018-11-05T19:07:02.784Z,100763.51
2018-11-05T19:09:29.735Z,100759.67
2018-11-05T19:11:56.641Z,100749.52
2018-11-05T19:14:23.560Z,100738.72
2018-11-05T19:16:50.486Z,100741.70
2018-11-05T19:19:17.395Z,100742.63
2018-11-05T19:21:44.324Z,100738.78
2018-11-05T19:24:11.325Z,100741.66
2018-11-05T19:26:38.202Z,100747.38
2018-11-05T19:29:05.125Z,100746.24
2018-11-05T19:31:32.037Z,100745.92
2018-11-05T19:33:58.967Z,100749.01
2018-11-05T19:36:25.897Z,100738.48
2018-11-05T19:38:52.800Z,100744.95
2018-11-05T19:41:19.714Z,100750.77
2018-11-05T19:43:46.619Z,100747.43
2018-11-05T19:46:13.542Z,100749.81
2018-11-05T19:48:40.450Z,100741.78
2018-11-05T19:51:07.389Z,100730.28
2018-11-05T19:53:34.361Z,100739.61
2018-11-05T19:56:01.308Z,100747.38
2018-11-05T19:58:28.169Z,100738.44
2018-11-05T20:00:55.163Z,100725.98
2018-11-05T20:03:22.028Z,100713.61
2018-11-05T20:05:48.988Z,100714.20
2018-11-05T20:08:15.885Z,100718.91
2018-11-05T20:10:42.816Z,100722.69
2018-11-05T20:13:09.724Z,100722.96
2018-11-05T20:15:36.673Z,100727.97
2018-11-05T20:18:03.666Z,100726.19
2018-11-05T20:20:30.629Z,100736.00
2018-11-05T20:22:57.573Z,100720.73
2018-11-05T20:25:24.426Z,100711.50
2018-11-05T20:27:51.688Z,100705.35
2018-11-05T20:30:20.021Z,100717.07
2018-11-05T20:32:48.458Z,100713.73
2018-11-05T20:35:15.169Z,100707.08
2018-11-05T20:37:42.143Z,100704.55
2018-11-05T20:40:11.714Z,100707.66
2018-11-05T20:42:38.616Z,100707.66
2018-11-05T20:45:05.976Z,100699.52
2018-11-05T20:47:33.616Z,100700.71
2018-11-05T20:50:01.460Z,100711.42
2018-11-05T20:52:29.098Z,100709.84
2018-11-05T20:54:56.398Z,100714.63
2018-11-05T20:57:23.581Z,100708.80
2018-11-05T20:59:50.535Z,100707.70
2018-11-05T21:02:17.500Z,100706.03
2018-11-05T21:04:44.415Z,100702.69
2018-11-05T21:07:12.122Z,100704.36
2018-11-05T21:09:39.708Z,100701.87
2018-11-05T21:12:07.838Z,100705.20
2018-11-05T21:14:35.344Z,100711.14
2018-11-05T21:17:02.492Z,100703.96
2018-11-05T21:19:29.540Z,100697.68
2018-11-05T21:21:57.359Z,100700.74
2018-11-05T21:24:24.452Z,100699.92
2018-11-05T21:26:51.403Z,100693.36
2018-11-05T21:29:19.043Z,100683.23
2018-11-05T21:31:46.729Z,100685.48
2018-11-05T21:34:14.384Z,100684.51
2018-11-05T21:36:41.708Z,100676.23
2018-11-05T21:39:10.948Z,100678.92
2018-11-05T21:41:39.441Z,100682.64
2018-11-05T21:44:06.982Z,100672.64
2018-11-05T21:46:34.109Z,100668.40
2018-11-05T21:49:01.053Z,100668.29
2018-11-05T21:51:28.801Z,100663.11
2018-11-05T21:53:56.502Z,100661.44
2018-11-05T21:56:23.511Z,100663.92
2018-11-05T21:58:50.857Z,100663.40
2018-11-05T22:01:17.792Z,100665.97
2018-11-05T22:03:44.967Z,100668.66
2018-11-05T22:06:12.460Z,100665.44
2018-11-05T22:08:40.026Z,100665.64
2018-11-05T22:11:07.181Z,100672.69
2018-11-05T22:13:34.154Z,100659.19
2018-11-05T22:16:01.687Z,100655.28
2018-11-05T22:18:29.363Z,100649.77
2018-11-05T22:23:30.772Z,100643.73
2018-11-05T22:25:57.952Z,100639.38
2018-11-05T22:28:25.420Z,100636.16
2018-11-05T22:30:52.393Z,100630.65
2018-11-05T22:33:19.324Z,100627.14
2018-11-05T22:35:46.295Z,100622.25
2018-11-05T22:38:13.297Z,100625.72
2018-11-05T22:40:40.215Z,100615.81
2018-11-05T22:43:13.888Z,100624.61
2018-11-05T22:45:40.889Z,100627.34
2018-11-05T22:48:07.865Z,100620.95
2018-11-05T22:50:34.813Z,100614.39
2018-11-05T22:53:01.784Z,100614.91
2018-11-05T22:55:28.732Z,100611.44
2018-11-05T22:57:55.656Z,100608.67
2018-11-05T23:00:28.277Z,100603.13
2018-11-05T23:03:32.413Z,100595.05
2018-11-05T23:05:59.609Z,100604.47
2018-11-05T23:08:26.622Z,100595.55
2018-11-05T23:10:53.557Z,100596.20
2018-11-05T23:13:20.567Z,100601.01
2018-11-05T23:15:47.516Z,100595.25
2018-11-05T23:18:14.485Z,100594.69
2018-11-05T23:20:41.477Z,100593.66
2018-11-05T23:23:08.413Z,100591.95
2018-11-05T23:25:35.335Z,100594.64
2018-11-05T23:28:02.243Z,100598.67
2018-11-05T23:30:29.167Z,100596.87
2018-11-05T23:32:56.081Z,100596.28
2018-11-05T23:35:23.009Z,100599.49
2018-11-05T23:37:49.920Z,100594.69
2018-11-05T23:40:16.852Z,100598.77
2018-11-05T23:42:43.737Z,100595.95
2018-11-05T23:45:13.320Z,100601.01
2018-11-05T23:47:40.273Z,100604.77
2018-11-05T23:50:07.526Z,100596.73
2018-11-05T23:52:34.469Z,100599.63
2018-11-05T23:55:01.411Z,100594.48
2018-11-05T23:57:28.312Z,100601.25
2018-11-05T23:59:55.208Z,100594.96
